Time;durP1;ratioP1;P1;durP2;ratioP2;P2;SDS_P1;SDS_P2;PMS_P1;PMS_P2;Temp;Humidity;BMP_temperature;BMP_pressure;BME280_temperature;BME280_humidity;BME280_pressure;Samples;Min_cycle;Max_cycle;Signal;HPM_P1;HPM_P2
2022/11/21 00:00:58;;;;;;;2.27;2.08;;;;;;;11.19;65.58;101071.59;1625183;87;21101;-59
2022/11/21 00:03:24;;;;;;;2.17;2.00;;;;;;;11.15;65.57;101082.48;1625488;87;21178;-59
2022/11/21 00:05:52;;;;;;;2.10;1.95;;;;;;;11.12;65.58;101088.20;1625808;87;21081;-58
2022/11/21 00:08:21;;;;;;;2.20;2.00;;;;;;;11.10;65.66;101093.88;1627448;87;21038;-59
2022/11/21 00:10:48;;;;;;;2.55;2.33;;;;;;;11.06;65.74;101103.50;1627829;87;21093;-59
2022/11/21 00:13:17;;;;;;;2.37;2.17;;;;;;;11.04;65.90;101102.67;1666949;85;21033;-59
2022/11/21 00:15:46;;;;;;;3.20;2.77;;;;;;;11.07;65.81;101094.79;1696416;84;21036;-60
2022/11/21 00:18:13;;;;;;;5.03;2.12;;;;;;;11.06;65.77;101100.91;1738651;79;21524;-58
2022/11/21 00:20:41;;;;;;;2.58;2.30;;;;;;;11.07;65.68;101090.88;1773384;80;21501;-59
2022/11/21 00:23:08;;;;;;;2.47;2.20;;;;;;;11.06;65.89;101083.97;1774282;80;21057;-59
2022/11/21 00:25:36;;;;;;;4.58;2.92;;;;;;;11.09;65.89;101085.20;1758711;80;21117;-59
2022/11/21 00:28:04;;;;;;;3.22;2.92;;;;;;;11.08;65.67;101088.71;1786838;79;21034;-59
2022/11/21 00:30:32;;;;;;;3.55;3.25;;;;;;;11.03;65.92;101098.34;1787553;79;21038;-59
2022/11/21 00:32:59;;;;;;;3.47;3.17;;;;;;;11.03;65.96;101106.15;1778060;80;21529;-59
2022/11/21 00:35:27;;;;;;;4.00;3.60;;;;;;;11.02;65.90;101108.35;1780859;80;21041;-59
2022/11/21 00:37:54;;;;;;;3.90;3.60;;;;;;;10.97;65.84;101108.00;1784149;80;21045;-59
2022/11/21 00:40:20;;;;;;;5.22;3.37;;;;;;;10.88;66.01;101102.50;1778598;80;21493;-58
2022/11/21 00:42:48;;;;;;;5.05;3.75;;;;;;;10.84;66.18;101103.44;1784549;79;21021;-59
2022/11/21 00:45:15;;;;;;;3.80;3.27;;;;;;;10.78;66.43;101106.16;1810016;78;21011;-59
2022/11/21 00:47:43;;;;;;;4.92;4.42;;;;;;;10.78;66.54;101107.45;1784506;79;21065;-59
2022/11/21 00:50:10;;;;;;;7.40;5.90;;;;;;;10.73;66.78;101090.20;1797945;78;21034;-58
2022/11/21 00:52:38;;;;;;;6.37;4.92;;;;;;;10.71;66.58;101081.13;1803099;77;20971;-58
2022/11/21 00:55:05;;;;;;;5.40;4.15;;;;;;;10.64;66.76;101071.27;1799719;78;21055;-59
2022/11/21 00:57:33;;;;;;;5.65;4.97;;;;;;;10.64;66.56;101071.70;1786607;79;20995;-59
2022/11/21 00:59:59;;;;;;;5.72;5.15;;;;;;;10.59;66.77;101068.33;1773774;80;21616;-59
2022/11/21 01:02:26;;;;;;;5.33;4.10;;;;;;;10.57;66.95;101076.14;1811075;78;21070;-58
2022/11/21 01:04:53;;;;;;;4.95;4.45;;;;;;;10.56;67.40;101081.37;1758881;79;21046;-59
2022/11/21 01:07:19;;;;;;;5.60;4.50;;;;;;;10.61;67.35;101083.48;1761588;79;21034;-59
2022/11/21 01:09:46;;;;;;;4.75;4.08;;;;;;;10.65;67.35;101066.92;1774732;80;21062;-59
2022/11/21 01:12:14;;;;;;;3.77;3.47;;;;;;;10.67;67.32;101061.25;1771246;80;21105;-58
2022/11/21 01:14:41;;;;;;;5.05;3.65;;;;;;;10.68;67.35;101059.05;1798577;78;21442;-59
2022/11/21 01:17:07;;;;;;;4.00;3.22;;;;;;;10.67;67.35;101072.97;1791141;78;21506;-58
2022/11/21 01:19:36;;;;;;;3.92;3.52;;;;;;;10.70;67.28;101082.00;1766972;80;21019;-58
2022/11/21 01:22:03;;;;;;;3.65;3.35;;;;;;;10.74;67.28;101084.13;1804452;78;21049;-59
2022/11/21 01:24:30;;;;;;;3.80;3.40;;;;;;;10.76;67.25;101091.00;1817541;78;20967;-58
2022/11/21 01:26:57;;;;;;;4.28;3.87;;;;;;;10.79;67.17;101085.77;1790296;78;21025;-58
2022/11/21 01:29:24;;;;;;;4.25;3.85;;;;;;;10.78;67.13;101086.63;1785245;79;21526;-58
2022/11/21 01:31:51;;;;;;;4.05;3.65;;;;;;;10.80;67.13;101100.48;1818047;78;21466;-59
2022/11/21 01:34:18;;;;;;;4.03;3.67;;;;;;;10.81;67.08;101093.10;1804622;78;21006;-58
2022/11/21 01:36:46;;;;;;;4.72;4.30;;;;;;;10.81;67.08;101091.80;1800439;78;21042;-59
2022/11/21 01:39:13;;;;;;;4.67;3.77;;;;;;;10.82;67.07;101086.99;1791989;78;21131;-58
2022/11/21 01:41:43;;;;;;;5.72;4.70;;;;;;;10.81;66.95;101074.02;1789427;79;21002;-59
2022/11/21 01:44:21;;;;;;;5.05;4.55;;;;;;;10.79;67.07;101069.28;1787836;79;21013;-59
2022/11/21 01:46:49;;;;;;;5.08;4.45;;;;;;;10.81;67.24;101070.11;1795836;78;20990;-58
2022/11/21 01:49:30;;;;;;;7.08;5.12;;;;;;;10.82;67.29;101072.67;1788714;79;21051;-59
2022/11/21 01:52:07;;;;;;;5.35;3.87;;;;;;;10.84;67.36;101070.91;1804279;78;21476;-59
2022/11/21 01:54:42;;;;;;;5.17;4.67;;;;;;;10.86;67.19;101063.92;1830654;78;21061;-59
2022/11/21 01:57:43;;;;;;;5.08;4.58;;;;;;;10.83;67.24;101058.79;1792874;78;21032;-58
2022/11/21 02:00:20;;;;;;;5.75;4.90;;;;;;;10.81;67.34;101046.25;1763242;80;21015;-58
2022/11/21 02:02:53;;;;;;;5.72;5.12;;;;;;;10.80;67.41;101043.21;1784322;79;21534;-59
2022/11/21 02:05:22;;;;;;;6.70;5.12;;;;;;;10.78;67.41;101024.16;1783261;79;20991;-59
2022/11/21 02:07:51;;;;;;;5.85;5.25;;;;;;;10.79;67.49;101015.48;1774391;79;21034;-59
2022/11/21 02:10:18;;;;;;;6.92;6.03;;;;;;;10.78;67.35;101005.94;1726399;81;21053;-59
2022/11/21 02:12:51;;;;;;;8.35;6.05;;;;;;;10.77;67.50;100989.92;1765210;79;21060;-59
2022/11/21 02:15:18;;;;;;;;;;;;;;;10.77;67.33;100983.42;1784608;79;21521;-59
2022/11/21 02:17:45;;;;;;;8.95;6.60;;;;;;;10.76;67.23;100992.09;1778935;79;20097;-59
2022/11/21 02:20:14;;;;;;;5.80;5.10;;;;;;;10.73;67.14;101005.19;1773274;79;21052;-59
2022/11/21 02:23:04;;;;;;;8.60;6.62;;;;;;;10.69;67.21;101010.03;1724570;81;21088;-59
2022/11/21 02:25:35;;;;;;;9.50;6.60;;;;;;;10.69;67.37;101000.92;1715398;82;21506;-60
2022/11/21 02:28:05;;;;;;;10.28;7.85;;;;;;;10.73;67.53;101004.32;1733472;82;21021;-59
2022/11/21 02:30:37;;;;;;;11.90;8.23;;;;;;;10.75;67.37;100990.40;1699174;83;21076;-59
2022/11/21 02:33:03;;;;;;;12.03;8.18;;;;;;;10.79;67.50;101007.67;1645573;85;21515;-59
2022/11/21 02:35:30;;;;;;;11.80;8.63;;;;;;;10.85;67.38;101011.46;1696628;84;21103;-59
2022/11/21 02:38:26;;;;;;;10.38;8.03;;;;;;;10.92;67.16;100997.42;1780711;80;21528;-59
2022/11/21 02:41:15;;;;;;;11.33;8.15;;;;;;;10.97;67.14;100999.94;1805768;78;21018;-59
2022/11/21 02:43:50;;;;;;;14.78;8.90;;;;;;;11.00;66.80;101000.77;1780660;79;21533;-59
2022/11/21 02:46:16;;;;;;;10.03;7.05;;;;;;;11.01;66.71;101001.16;1765538;81;21505;-59
2022/11/21 02:48:44;;;;;;;8.20;6.58;;;;;;;11.05;66.68;101003.25;1730953;81;21086;-59
2022/11/21 02:51:11;;;;;;;10.23;8.45;;;;;;;11.09;66.59;101008.38;1681124;82;21102;-60
2022/11/21 02:53:39;;;;;;;8.83;5.90;;;;;;;11.14;66.47;101010.46;1764266;81;21474;-59
2022/11/21 02:56:05;;;;;;;8.93;6.67;;;;;;;11.19;66.24;101015.12;1759841;81;21038;-59
2022/11/21 02:58:32;;;;;;;6.35;5.42;;;;;;;11.24;66.03;101006.78;1767464;81;21044;-59
2022/11/21 03:00:58;;;;;;;5.75;5.00;;;;;;;11.28;65.89;101018.84;1751458;81;21030;-60
2022/11/21 03:03:25;;;;;;;5.08;4.58;;;;;;;11.34;65.73;101005.70;1756288;81;21486;-59
2022/11/21 03:05:52;;;;;;;5.22;4.47;;;;;;;11.39;65.52;101013.42;1761442;81;21018;-59
2022/11/21 03:08:18;;;;;;;4.40;4.00;;;;;;;11.43;65.25;101015.07;1756389;81;21042;-59
2022/11/21 03:10:45;;;;;;;4.62;4.22;;;;;;;11.48;65.01;101012.38;1751579;81;21052;-59
2022/11/21 03:13:12;;;;;;;4.78;4.37;;;;;;;11.50;64.75;101002.78;1761713;81;21065;-59
2022/11/21 03:15:40;;;;;;;4.40;4.00;;;;;;;11.51;64.59;100996.66;1766470;81;20998;-59
2022/11/21 03:18:07;;;;;;;5.30;4.03;;;;;;;11.51;64.33;100984.94;1765432;81;21549;-59
2022/11/21 03:20:35;;;;;;;4.58;4.17;;;;;;;11.51;64.16;100971.91;1765530;81;21109;-59
2022/11/21 03:23:02;;;;;;;3.83;3.52;;;;;;;11.51;64.05;100967.99;1765600;81;21041;-59
2022/11/21 03:25:30;;;;;;;4.87;3.83;;;;;;;11.50;64.01;100966.30;1759618;81;21037;-59
2022/11/21 03:27:58;;;;;;;4.30;3.90;;;;;;;11.50;63.91;100976.72;1766160;81;21077;-59
2022/11/21 03:30:26;;;;;;;5.53;4.50;;;;;;;11.51;63.90;100966.25;1765820;81;21101;-59
2022/11/21 03:32:55;;;;;;;8.50;5.03;;;;;;;11.51;63.92;100955.83;1766433;81;21034;-59
2022/11/21 03:35:24;;;;;;;4.78;4.28;;;;;;;11.52;63.92;100960.60;1658388;86;21130;-59
2022/11/21 03:37:52;;;;;;;6.53;4.62;;;;;;;11.50;64.01;100948.05;1670206;85;21180;-60
2022/11/21 03:40:19;;;;;;;6.22;4.50;;;;;;;11.50;64.13;100953.27;1667884;85;21104;-59
2022/11/21 03:42:46;;;;;;;5.05;4.25;;;;;;;11.50;64.27;100957.17;1681057;84;21057;-59
2022/11/21 03:45:13;;;;;;;4.75;4.30;;;;;;;11.52;64.31;100961.91;1692922;84;21577;-60
2022/11/21 03:47:40;;;;;;;4.40;4.00;;;;;;;11.54;64.36;100978.36;1683297;85;21060;-59
2022/11/21 03:50:09;;;;;;;5.55;4.40;;;;;;;11.54;64.42;100958.82;1704284;83;21082;-59
2022/11/21 03:52:36;;;;;;;4.83;4.30;;;;;;;11.54;64.47;100960.13;1702830;83;21093;-59
2022/11/21 03:55:04;;;;;;;5.67;5.08;;;;;;;11.54;64.45;100967.94;1703314;83;21051;-59
2022/11/21 03:57:31;;;;;;;5.58;4.62;;;;;;;11.57;64.35;100980.88;1725055;83;21014;-59
2022/11/21 03:59:58;;;;;;;5.65;4.97;;;;;;;11.53;64.18;100970.12;1724504;83;21066;-59
2022/11/21 04:02:24;;;;;;;5.55;5.05;;;;;;;11.43;64.01;100975.98;1730054;81;21139;-59
2022/11/21 04:04:52;;;;;;;6.00;5.50;;;;;;;11.33;64.01;100962.75;1727985;83;21073;-59
2022/11/21 04:07:18;;;;;;;6.60;5.62;;;;;;;11.23;64.23;100964.67;1729947;82;21160;-59
2022/11/21 04:09:45;;;;;;;5.80;5.28;;;;;;;11.14;64.28;100970.53;1728281;83;21575;-59
2022/11/21 04:12:12;;;;;;;6.00;5.37;;;;;;;11.06;64.35;100961.58;1728464;83;21065;-59
2022/11/21 04:14:40;;;;;;;6.08;5.47;;;;;;;11.00;64.43;100962.14;1728890;83;21061;-60
2022/11/21 04:17:08;;;;;;;6.72;5.90;;;;;;;10.94;64.67;100976.12;1726389;82;21081;-59
2022/11/21 04:19:35;;;;;;;6.75;5.92;;;;;;;10.90;64.80;100970.56;1725069;83;21160;-60
2022/11/21 04:22:02;;;;;;;6.08;5.47;;;;;;;10.88;65.00;100974.94;1723904;82;21092;-59
2022/11/21 04:24:29;;;;;;;7.03;6.33;;;;;;;10.86;65.16;100976.72;1697626;84;21034;-59
2022/11/21 04:26:56;;;;;;;6.72;5.80;;;;;;;10.86;65.30;100976.72;1696506;84;21526;-59
2022/11/21 04:29:23;;;;;;;6.90;6.20;;;;;;;10.87;65.35;100974.55;1695771;84;21565;-59
2022/11/21 04:31:50;;;;;;;6.78;6.08;;;;;;;10.87;65.42;100974.55;1733339;80;21573;-59
2022/11/21 04:34:16;;;;;;;7.12;6.42;;;;;;;10.91;65.52;100967.52;1775577;80;21037;-59
2022/11/21 04:36:43;;;;;;;7.10;6.40;;;;;;;10.94;65.54;100948.78;1781442;80;21532;-60
2022/11/21 04:39:10;;;;;;;7.92;6.78;;;;;;;10.95;65.40;100942.70;1767010;80;21054;-59
2022/11/21 04:41:36;;;;;;;7.40;6.67;;;;;;;10.92;65.50;100938.84;1778377;79;21077;-59
2022/11/21 04:44:04;;;;;;;8.70;6.40;;;;;;;10.92;65.52;100918.02;1768126;80;21617;-59
2022/11/21 04:46:30;;;;;;;7.70;6.50;;;;;;;10.92;65.56;100901.56;1736279;81;21501;-59
2022/11/21 04:48:57;;;;;;;7.33;6.62;;;;;;;10.88;65.63;100883.83;1756131;81;21085;-59
2022/11/21 04:51:24;;;;;;;7.95;7.15;;;;;;;10.85;66.02;100887.81;1751422;81;21066;-59
2022/11/21 04:53:50;;;;;;;8.53;7.40;;;;;;;10.85;66.20;100890.41;1738153;81;21054;-59
2022/11/21 04:56:17;;;;;;;8.53;7.17;;;;;;;10.85;66.19;100887.81;1733361;81;21076;-59
2022/11/21 04:58:44;;;;;;;10.60;8.43;;;;;;;10.85;66.30;100897.36;1744117;81;21042;-59
2022/11/21 05:01:11;;;;;;;9.15;7.92;;;;;;;10.85;66.55;100880.00;1765984;80;21510;-59
2022/11/21 05:03:38;;;;;;;9.03;8.13;;;;;;;10.88;66.58;100852.59;1716041;82;21035;-59
2022/11/21 05:06:05;;;;;;;9.15;7.90;;;;;;;10.90;66.59;100854.71;1714966;82;21505;-59
2022/11/21 05:08:33;;;;;;;9.90;8.03;;;;;;;10.96;66.59;100862.42;1770399;80;21021;-59
2022/11/21 05:13:45;;;;;;;9.15;8.25;;;;;;;11.09;66.51;100866.45;1728357;82;21567;-59
2022/11/21 05:16:11;;;;;;;10.23;8.58;;;;;;;11.17;66.91;100893.18;1730225;80;21074;-59
2022/11/21 05:18:38;;;;;;;12.05;8.70;;;;;;;11.24;67.05;100897.38;1747736;80;21094;-59
2022/11/21 05:21:06;;;;;;;9.75;8.75;;;;;;;11.27;67.40;100880.83;1734870;81;21017;-59
2022/11/21 05:23:33;;;;;;;8.40;7.60;;;;;;;11.32;68.35;100883.73;1718194;82;21694;-59
2022/11/21 05:25:59;;;;;;;8.75;6.90;;;;;;;11.40;68.97;100866.61;1733199;81;21105;-60
2022/11/21 05:28:26;;;;;;;9.18;7.20;;;;;;;11.50;69.44;100869.88;1731255;82;21502;-59
2022/11/21 05:30:53;;;;;;;8.23;7.00;;;;;;;11.58;69.91;100853.14;1750855;81;21074;-59
2022/11/21 05:33:20;;;;;;;8.10;7.15;;;;;;;11.68;70.42;100835.58;1760567;81;21088;-59
2022/11/21 05:35:47;;;;;;;9.98;7.22;;;;;;;11.76;70.84;100820.59;1776752;80;21081;-60
2022/11/21 05:38:13;;;;;;;13.60;7.37;;;;;;;11.83;71.30;100811.74;1781831;79;21664;-59
2022/11/21 05:40:40;;;;;;;7.95;6.17;;;;;;;11.92;71.71;100811.48;1769799;80;21030;-60
2022/11/21 05:45:53;;;;;;;7.75;6.35;;;;;;;12.10;72.12;100814.45;1806396;77;21033;-59
2022/11/21 05:48:19;;;;;;;6.87;5.60;;;;;;;12.19;72.14;100805.53;1812684;78;21723;-59
2022/11/21 05:50:49;;;;;;;6.78;5.05;;;;;;;12.28;72.35;100801.82;1760755;80;21007;-59
2022/11/21 05:53:15;;;;;;;5.67;5.17;;;;;;;12.35;72.44;100808.56;1744437;81;21077;-60
2022/11/21 05:55:43;;;;;;;5.25;4.72;;;;;;;12.42;72.57;100783.58;1754480;81;21073;-59
2022/11/21 05:58:09;;;;;;;6.30;4.92;;;;;;;12.49;72.64;100783.78;1736082;81;21042;-60
2022/11/21 06:00:37;;;;;;;7.37;5.40;;;;;;;12.55;72.80;100767.94;1725293;82;21034;-59
2022/11/21 06:03:25;;;;;;;5.42;4.40;;;;;;;12.62;72.96;100759.05;1734243;81;21090;-59
2022/11/21 06:06:11;;;;;;;5.95;4.20;;;;;;;12.71;73.13;100760.52;1722185;80;21073;-59
2022/11/21 06:08:44;;;;;;;5.53;4.10;;;;;;;12.80;73.18;100768.06;1727837;80;21067;-59
2022/11/21 06:11:14;;;;;;;7.33;4.35;;;;;;;12.87;73.23;100778.30;1745650;81;21013;-59
2022/11/21 06:13:42;;;;;;;5.22;4.03;;;;;;;12.93;73.29;100767.66;1761285;81;21030;-59
2022/11/21 06:16:11;;;;;;;4.28;3.67;;;;;;;13.01;73.32;100751.29;1737648;81;21038;-59
2022/11/21 06:18:44;;;;;;;5.20;3.95;;;;;;;13.08;73.44;100755.05;1731315;81;21601;-59
2022/11/21 06:21:18;;;;;;;4.60;3.58;;;;;;;13.10;73.44;100737.56;1736783;80;21069;-59
2022/11/21 06:23:44;;;;;;;6.70;3.85;;;;;;;13.15;73.63;100735.67;1734045;80;21049;-59
2022/11/21 06:26:15;;;;;;;3.92;3.30;;;;;;;13.20;73.78;100728.52;1737423;81;21579;-59
2022/11/21 06:28:41;;;;;;;3.33;2.83;;;;;;;13.25;73.75;100739.69;1735801;81;21022;-59
2022/11/21 06:31:12;;;;;;;4.47;3.45;;;;;;;13.29;73.83;100733.45;1736160;81;21537;-60
2022/11/21 06:33:40;;;;;;;5.67;3.25;;;;;;;13.35;73.96;100735.86;1688405;83;21515;-58
2022/11/21 06:36:10;;;;;;;5.08;3.47;;;;;;;13.40;74.01;100740.47;1700960;84;21532;-59
2022/11/21 06:38:37;;;;;;;5.05;2.80;;;;;;;13.45;74.05;100737.27;1698637;83;21135;-58
2022/11/21 06:41:20;;;;;;;4.55;3.00;;;;;;;13.49;74.15;100733.19;1698861;84;21670;-58
2022/11/21 06:43:48;;;;;;;4.72;2.35;;;;;;;13.54;74.25;100739.10;1699911;84;21084;-58
2022/11/21 06:46:16;;;;;;;5.22;2.22;;;;;;;13.60;74.44;100736.28;1676206;85;21058;-58
2022/11/21 06:48:43;;;;;;;2.75;2.10;;;;;;;13.68;74.61;100721.17;1671910;85;21568;-58
2022/11/21 06:51:19;;;;;;;2.50;2.22;;;;;;;13.75;74.64;100728.36;1680589;85;21046;-58
2022/11/21 06:53:47;;;;;;;4.58;2.02;;;;;;;13.83;74.77;100719.78;1677379;85;21058;-58
2022/11/21 06:56:14;;;;;;;3.80;2.50;;;;;;;13.91;74.90;100708.59;1672576;85;21092;-58
2022/11/21 06:58:41;;;;;;;5.45;2.77;;;;;;;13.99;75.01;100687.41;1672156;85;21034;-57
2022/11/21 07:01:09;;;;;;;3.77;2.25;;;;;;;14.05;75.04;100677.58;1676060;85;21504;-58
2022/11/21 07:03:36;;;;;;;4.37;2.58;;;;;;;14.12;75.09;100672.49;1667922;84;21524;-58
2022/11/21 07:06:05;;;;;;;6.20;3.30;;;;;;;14.14;75.37;100664.58;1727133;80;21076;-58
2022/11/21 07:11:05;;;;;;;8.40;4.50;;;;;;;14.32;75.24;100652.98;1729844;81;21093;-58
2022/11/21 07:13:32;;;;;;;5.70;4.25;;;;;;;14.39;75.18;100647.92;1689415;83;21674;-58
2022/11/21 07:16:05;;;;;;;6.92;4.33;;;;;;;14.46;75.17;100647.23;1675532;85;21026;-58
2022/11/21 07:18:32;;;;;;;6.65;4.15;;;;;;;14.52;75.17;100639.14;1666973;84;21058;-59
2022/11/21 07:21:00;;;;;;;7.35;4.10;;;;;;;14.58;75.07;100634.52;1644535;86;21105;-58
2022/11/21 07:23:27;;;;;;;9.40;4.22;;;;;;;14.66;75.00;100633.75;1624502;87;21095;-59
2022/11/21 07:25:54;;;;;;;6.00;3.87;;;;;;;14.71;75.00;100627.47;1650021;86;21024;-58
2022/11/21 07:28:21;;;;;;;8.05;4.03;;;;;;;14.77;74.95;100623.30;1656722;85;21030;-58
2022/11/21 07:30:48;;;;;;;7.30;3.42;;;;;;;14.83;74.91;100615.18;1649910;86;21058;-58
2022/11/21 07:33:14;;;;;;;6.55;3.40;;;;;;;14.89;74.87;100614.48;1668950;85;21072;-58
2022/11/21 07:35:42;;;;;;;8.15;3.67;;;;;;;14.95;74.79;100606.36;1690469;84;21086;-59
2022/11/21 07:38:08;;;;;;;5.03;3.33;;;;;;;15.01;74.76;100603.92;1690620;84;21519;-58
2022/11/21 07:40:35;;;;;;;7.20;3.55;;;;;;;15.07;74.72;100604.52;1677682;84;21096;-59
2022/11/21 07:43:04;;;;;;;5.85;3.25;;;;;;;15.15;74.62;100604.19;1643677;85;21022;-59
2022/11/21 07:45:32;;;;;;;9.73;4.00;;;;;;;15.20;74.55;100599.61;1666502;85;21056;-58
2022/11/21 07:48:00;;;;;;;8.60;4.65;;;;;;;15.27;74.50;100594.52;1668695;85;21100;-58
2022/11/21 07:50:27;;;;;;;7.97;3.40;;;;;;;15.31;74.45;100595.59;1667714;85;21082;-58
2022/11/21 07:53:02;;;;;;;6.25;3.87;;;;;;;15.36;74.43;100586.23;1661899;85;21105;-58
2022/11/21 07:55:29;;;;;;;6.17;3.47;;;;;;;15.18;75.38;100580.03;1685837;85;21054;-59
2022/11/21 07:58:09;;;;;;;6.80;3.77;;;;;;;15.17;75.84;100573.52;1675641;84;21123;-58
2022/11/21 08:00:37;;;;;;;7.83;3.72;;;;;;;15.21;75.90;100567.23;1654173;86;21035;-59
2022/11/21 08:03:05;;;;;;;13.30;4.78;;;;;;;15.26;75.93;100562.65;1627919;87;21070;-58
2022/11/21 08:05:41;;;;;;;9.48;4.00;;;;;;;15.31;76.06;100551.03;1647654;86;21118;-60
2022/11/21 08:08:09;;;;;;;7.45;3.45;;;;;;;15.36;76.08;100554.31;1590448;88;21073;-58
2022/11/21 08:10:41;;;;;;;11.68;4.92;;;;;;;15.41;76.13;100551.50;1585017;90;21246;-59
2022/11/21 08:13:08;;;;;;;10.72;4.30;;;;;;;15.44;76.19;100552.23;1567392;90;21543;-58
2022/11/21 08:15:35;;;;;;;7.47;4.53;;;;;;;15.50;76.12;100540.61;1604456;87;21045;-59
2022/11/21 08:18:11;;;;;;;9.05;4.15;;;;;;;15.54;76.11;100543.48;1635138;87;21048;-58
2022/11/21 08:20:39;;;;;;;8.55;4.30;;;;;;;15.60;76.11;100530.58;1604215;89;21118;-58
2022/11/21 08:23:08;;;;;;;13.75;4.92;;;;;;;15.62;76.12;100523.00;1599200;89;21054;-58
2022/11/21 08:25:37;;;;;;;13.22;4.87;;;;;;;15.65;76.07;100512.38;1585759;89;21130;-59
2022/11/21 08:28:05;;;;;;;14.87;4.97;;;;;;;15.67;76.12;100500.05;1528272;92;21070;-58
2022/11/21 08:30:32;;;;;;;11.65;4.62;;;;;;;15.70;76.15;100494.67;1555172;91;21070;-58
2022/11/21 08:32:59;;;;;;;13.20;4.92;;;;;;;15.72;76.22;100479.71;1551760;91;21148;-58
2022/11/21 08:35:27;;;;;;;12.98;5.90;;;;;;;15.75;76.27;100475.62;1545796;92;21636;-59
2022/11/21 08:37:59;;;;;;;18.80;6.72;;;;;;;15.77;76.38;100467.21;1575674;89;21071;-59
2022/11/21 08:40:28;;;;;;;18.17;6.62;;;;;;;15.80;76.43;100471.02;1582729;89;21038;-58
2022/11/21 08:43:06;;;;;;;13.40;5.95;;;;;;;15.84;76.42;100473.88;1568992;90;21068;-59
2022/11/21 08:45:34;;;;;;;16.40;6.33;;;;;;;15.86;76.45;100465.48;1566075;91;21077;-59
2022/11/21 08:48:01;;;;;;;22.25;6.60;;;;;;;15.89;76.41;100465.31;1560264;90;21144;-59
2022/11/21 08:50:28;;;;;;;16.15;6.12;;;;;;;15.90;76.51;100466.17;1556098;92;21068;-59
2022/11/21 08:53:00;;;;;;;23.60;7.87;;;;;;;15.94;76.59;100462.47;1554325;91;21044;-59
2022/11/21 08:55:27;;;;;;;26.68;7.35;;;;;;;15.98;76.66;100456.16;1556806;92;21085;-59
2022/11/21 08:57:54;;;;;;;21.10;8.23;;;;;;;16.00;76.66;100449.05;1554123;92;21097;-58
2022/11/21 09:00:21;;;;;;;21.30;7.35;;;;;;;16.03;76.72;100434.00;1549975;92;21095;-59
2022/11/21 09:02:48;;;;;;;23.52;8.18;;;;;;;16.07;76.83;100421.59;1553116;92;21060;-59
2022/11/21 09:05:15;;;;;;;26.75;9.15;;;;;;;16.11;76.81;100397.75;1612886;86;21525;-59
2022/11/21 09:07:42;;;;;;;20.12;7.53;;;;;;;16.15;76.80;100394.05;1624977;87;21083;-59
2022/11/21 09:10:10;;;;;;;21.35;8.40;;;;;;;16.20;76.82;100379.35;1626599;87;21166;-59
2022/11/21 09:12:37;;;;;;;24.07;8.55;;;;;;;16.26;76.76;100370.70;1600763;86;21081;-58
2022/11/21 09:18:03;;;;;;;27.42;9.48;;;;;;;16.37;76.43;100374.56;1599698;88;21086;-58
2022/11/21 09:20:32;;;;;;;32.30;9.45;;;;;;;16.43;76.21;100362.42;1590144;88;21061;-58
2022/11/21 09:23:08;;;;;;;25.57;9.38;;;;;;;16.48;76.02;100355.17;1597064;88;21106;-59
2022/11/21 09:25:37;;;;;;;31.15;9.58;;;;;;;16.54;75.84;100345.23;1614180;87;21138;-59
2022/11/21 09:28:05;;;;;;;31.02;8.30;;;;;;;16.64;75.50;100342.95;1594432;88;21134;-58
2022/11/21 09:30:32;;;;;;;35.40;9.23;;;;;;;16.70;75.17;100336.06;1609145;87;21079;-58
2022/11/21 09:33:03;;;;;;;32.40;10.43;;;;;;;16.74;74.90;100325.77;1612447;87;21013;-59
2022/11/21 09:35:30;;;;;;;39.65;9.75;;;;;;;16.79;74.62;100331.64;1591651;88;21127;-59
2022/11/21 09:37:58;;;;;;;30.65;9.35;;;;;;;16.83;74.33;100335.80;1671428;85;21002;-59
2022/11/21 09:40:25;;;;;;;32.90;8.10;;;;;;;16.84;74.18;100338.80;1687386;84;21478;-59
2022/11/21 09:43:23;;;;;;;30.05;7.67;;;;;;;16.86;73.93;100346.13;1703256;83;21061;-58
2022/11/21 09:45:51;;;;;;;29.92;8.13;;;;;;;16.89;73.67;100336.78;1685611;84;21553;-58
2022/11/21 09:48:29;;;;;;;28.12;7.45;;;;;;;16.93;73.35;100338.31;1685154;84;21034;-59
2022/11/21 09:51:04;;;;;;;36.80;8.58;;;;;;;16.97;73.14;100339.84;1634367;87;21041;-59
2022/11/21 09:53:41;;;;;;;38.25;7.70;;;;;;;17.02;72.73;100331.25;1627100;88;21590;-59
2022/11/21 09:56:14;;;;;;;32.42;7.83;;;;;;;17.07;72.24;100317.38;1662196;85;21034;-59
2022/11/21 09:59:11;;;;;;;32.53;8.68;;;;;;;17.16;71.86;100316.88;1548696;92;21086;-59
2022/11/21 10:01:38;;;;;;;30.92;8.20;;;;;;;17.24;71.27;100322.55;1501989;94;21111;-59
2022/11/21 10:04:04;;;;;;;31.57;7.83;;;;;;;17.31;70.59;100322.57;1505732;94;21186;-59
2022/11/21 10:06:45;;;;;;;27.58;8.20;;;;;;;17.36;70.01;100317.92;1485645;95;21102;-59
2022/11/21 10:09:18;;;;;;;24.23;8.50;;;;;;;17.43;69.50;100321.05;1502447;94;21164;-59
2022/11/21 10:15:59;;;;;;;30.92;8.05;;;;;;;17.53;68.80;100317.86;1472626;96;21150;-59
2022/11/21 10:19:03;;;;;;;39.25;9.68;;;;;;;17.58;68.52;100287.31;1482669;96;21627;-59
2022/11/21 10:21:54;;;;;;;29.80;8.30;;;;;;;17.62;68.36;100281.79;1475566;96;21152;-59
2022/11/21 10:24:41;;;;;;;36.88;8.58;;;;;;;17.67;68.22;100274.95;1475047;96;21115;-59
2022/11/21 10:27:26;;;;;;;25.17;7.90;;;;;;;17.72;67.95;100271.11;1470907;96;21120;-59
2022/11/21 10:29:59;;;;;;;36.13;7.90;;;;;;;17.75;67.88;100269.62;1415629;100;21605;-59
2022/11/21 10:32:41;;;;;;;27.22;7.78;;;;;;;17.77;67.89;100257.22;1394550;102;21735;-59
2022/11/21 10:35:22;;;;;;;32.67;7.95;;;;;;;17.79;67.92;100256.66;1369171;103;21238;-59
2022/11/21 10:37:55;;;;;;;39.58;8.88;;;;;;;17.80;67.91;100249.12;1367585;104;21203;-60
2022/11/21 10:40:39;;;;;;;30.57;8.68;;;;;;;17.81;68.08;100244.26;1367845;103;21131;-59
2022/11/21 10:46:11;;;;;;;37.88;9.08;;;;;;;17.81;68.35;100249.52;1354896;105;21126;-60
2022/11/21 10:48:38;;;;;;;26.52;7.30;;;;;;;17.89;68.26;100248.59;1384732;103;21188;-59
2022/11/21 10:51:26;;;;;;;37.85;9.20;;;;;;;17.92;68.17;100250.20;1370359;103;21220;-59
2022/11/21 10:57:00;;;;;;;39.85;9.10;;;;;;;18.02;68.19;100241.27;1442725;99;21173;-59
2022/11/21 11:02:24;;;;;;;35.08;8.35;;;;;;;18.06;67.49;100225.67;1419404;99;21246;-59
2022/11/21 11:05:21;;;;;;;30.90;8.30;;;;;;;18.07;67.32;100220.80;1462299;97;21152;-59
2022/11/21 11:08:12;;;;;;;37.42;8.80;;;;;;;18.08;67.34;100221.16;1500935;94;21619;-57
2022/11/21 11:10:44;;;;;;;27.20;7.47;;;;;;;18.09;67.49;100227.67;1496640;95;21133;-60
2022/11/21 11:13:32;;;;;;;30.88;8.53;;;;;;;18.12;67.33;100227.92;1512648;94;21050;-57
2022/11/21 11:16:14;;;;;;;28.60;7.05;;;;;;;18.14;67.14;100220.78;1513931;94;21228;-60
2022/11/21 11:19:09;;;;;;;36.83;8.75;;;;;;;18.13;66.98;100216.47;1502787;94;22404;-57
2022/11/21 11:21:43;;;;;;;29.85;7.75;;;;;;;18.13;66.88;100205.94;1506719;93;21109;-58
2022/11/21 11:24:16;;;;;;;36.80;9.13;;;;;;;18.12;66.72;100209.50;1559487;90;21093;-59
2022/11/21 11:26:56;;;;;;;34.70;8.78;;;;;;;18.11;66.61;100206.50;1579480;88;21141;-59
2022/11/21 11:29:29;;;;;;;34.88;8.28;;;;;;;18.10;66.50;100206.11;1580027;89;21161;-59
2022/11/21 11:32:00;;;;;;;35.83;9.13;;;;;;;18.09;66.44;100207.06;1582076;90;21100;-59
2022/11/21 11:34:41;;;;;;;33.63;7.55;;;;;;;18.07;66.41;100208.95;1585477;89;21544;-59
2022/11/21 11:37:39;;;;;;;27.40;7.97;;;;;;;18.05;66.34;100208.20;1657040;83;21038;-59
2022/11/21 11:40:24;;;;;;;30.17;6.62;;;;;;;18.03;66.34;100206.13;1704972;83;21045;-59
2022/11/21 11:52:29;;;;;;;28.83;7.75;;;;;;;18.13;65.91;100192.77;1626733;87;21073;-59
2022/11/21 11:55:01;;;;;;;26.07;6.72;;;;;;;18.17;65.59;100194.28;1637578;87;21097;-58
2022/11/21 11:57:29;;;;;;;28.07;7.45;;;;;;;18.20;65.37;100187.48;1609012;89;21598;-58
2022/11/21 12:00:21;;;;;;;23.98;6.45;;;;;;;18.20;65.26;100187.48;1582025;89;21586;-58
2022/11/21 12:03:25;;;;;;;27.25;8.03;;;;;;;18.20;65.20;100192.75;1607372;89;21123;-58
2022/11/21 12:06:31;;;;;;;24.32;6.60;;;;;;;18.21;65.19;100195.31;1571658;91;21117;-58
2022/11/21 12:09:03;;;;;;;29.15;7.65;;;;;;;18.23;65.35;100189.95;1577326;90;21066;-58
2022/11/21 12:12:06;;;;;;;24.75;7.55;;;;;;;18.30;65.22;100177.61;1542181;92;21109;-59